createdAt,value
2018-06-22T00:02:25.604Z,84.40
2018-06-22T00:04:54.575Z,81.50
2018-06-22T00:07:23.658Z,84.20
2018-06-22T00:09:52.574Z,83.20
2018-06-22T00:12:21.478Z,85.70
2018-06-22T00:14:50.382Z,82.00
2018-06-22T00:17:19.501Z,83.40
2018-06-22T00:19:48.405Z,82.80
2018-06-22T00:22:17.365Z,83.70
2018-06-22T00:24:46.471Z,81.50
2018-06-22T00:27:15.379Z,82.30
2018-06-22T00:29:44.419Z,85.90
2018-06-22T00:32:13.345Z,85.30
2018-06-22T00:34:42.321Z,85.80
2018-06-22T00:37:11.249Z,83.60
2018-06-22T00:39:40.267Z,81.40
2018-06-22T00:42:09.249Z,79.60
2018-06-22T00:44:38.290Z,80.50
2018-06-22T00:47:07.185Z,80.70
2018-06-22T00:49:36.429Z,83.90
2018-06-22T00:52:05.361Z,79.60
2018-06-22T00:54:34.467Z,82.50
2018-06-22T00:57:03.402Z,86.70
2018-06-22T00:59:32.389Z,86.00
2018-06-22T01:02:01.284Z,81.10
2018-06-22T01:04:30.223Z,81.30
2018-06-22T01:06:59.111Z,82.00
2018-06-22T01:09:28.046Z,84.50
2018-06-22T01:11:56.909Z,82.00
2018-06-22T01:14:25.813Z,83.30
2018-06-22T01:16:54.850Z,84.40
2018-06-22T01:19:23.797Z,83.20
2018-06-22T01:21:52.735Z,83.50
2018-06-22T01:24:21.677Z,83.00
2018-06-22T01:26:50.613Z,84.30
2018-06-22T01:29:19.565Z,82.80
2018-06-22T01:31:48.497Z,87.10
2018-06-22T01:34:17.542Z,85.80
2018-06-22T01:39:14.982Z,85.50
2018-06-22T01:41:43.861Z,83.70
2018-06-22T01:44:12.894Z,84.60
2018-06-22T01:46:41.986Z,84.80
2018-06-22T01:49:10.929Z,84.40
2018-06-22T01:51:39.897Z,86.30
2018-06-22T01:54:08.866Z,83.40
2018-06-22T01:56:37.851Z,84.00
2018-06-22T01:59:06.760Z,87.50
2018-06-22T02:01:35.872Z,86.30
2018-06-22T02:04:04.830Z,85.70
2018-06-22T02:06:33.937Z,84.00
2018-06-22T02:09:05.061Z,84.70
2018-06-22T02:11:34.001Z,85.80
2018-06-22T02:14:03.363Z,85.40
2018-06-22T02:16:32.354Z,84.20
2018-06-22T02:19:01.341Z,83.40
2018-06-22T02:21:30.513Z,86.60
2018-06-22T02:23:59.427Z,87.10
2018-06-22T02:26:28.406Z,86.10
2018-06-22T02:28:57.289Z,86.30
2018-06-22T02:31:26.341Z,87.30
2018-06-22T02:33:55.287Z,87.50
2018-06-22T02:36:24.200Z,85.20
2018-06-22T02:38:53.130Z,86.00
2018-06-22T02:41:22.048Z,87.60
2018-06-22T02:43:50.983Z,83.70
2018-06-22T02:46:20.103Z,85.30
2018-06-22T02:48:49.094Z,86.70
2018-06-22T02:51:18.035Z,86.00
2018-06-22T02:53:47.036Z,85.40
2018-06-22T02:56:15.987Z,85.40
2018-06-22T02:58:45.789Z,84.90
2018-06-22T03:01:14.776Z,85.00
2018-06-22T03:03:43.751Z,86.50
2018-06-22T03:06:12.663Z,85.30
2018-06-22T03:11:17.075Z,89.30
2018-06-22T03:13:46.210Z,85.40
2018-06-22T03:16:15.137Z,84.20
2018-06-22T03:18:44.226Z,86.20
2018-06-22T03:21:13.294Z,88.00
2018-06-22T03:26:10.859Z,86.20
2018-06-22T03:28:39.814Z,87.70
2018-06-22T03:31:08.733Z,88.30
2018-06-22T03:33:37.844Z,86.20
2018-06-22T03:36:06.763Z,86.80
2018-06-22T03:41:11.380Z,88.00
2018-06-22T03:43:40.310Z,88.30
2018-06-22T03:46:09.454Z,87.90
2018-06-22T03:48:38.384Z,87.10
2018-06-22T03:51:07.327Z,85.30
2018-06-22T03:53:36.258Z,90.20
2018-06-22T03:56:05.215Z,89.30
2018-06-22T03:58:34.179Z,91.00
2018-06-22T04:01:03.098Z,90.10
2018-06-22T04:03:32.018Z,89.30
2018-06-22T04:06:00.924Z,91.60
2018-06-22T04:08:29.872Z,88.60
2018-06-22T04:10:58.810Z,89.80
2018-06-22T04:13:27.965Z,88.50
2018-06-22T04:15:57.143Z,88.70
2018-06-22T04:18:26.590Z,89.10
2018-06-22T04:20:55.525Z,88.20
2018-06-22T04:23:24.449Z,87.00
2018-06-22T04:25:53.374Z,85.00
2018-06-22T04:28:22.302Z,87.40
2018-06-22T04:30:51.223Z,87.20
2018-06-22T04:33:20.190Z,88.30
2018-06-22T04:35:49.277Z,88.00
2018-06-22T04:38:18.394Z,88.60
2018-06-22T04:40:47.489Z,86.90
2018-06-22T04:45:44.884Z,87.70
2018-06-22T04:48:13.840Z,87.50
2018-06-22T04:50:42.770Z,87.50
2018-06-22T04:53:11.692Z,86.30
2018-06-22T04:55:40.775Z,87.00
2018-06-22T04:58:10.126Z,85.90
2018-06-22T05:00:39.122Z,85.80
2018-06-22T05:05:36.517Z,88.50
2018-06-22T05:08:05.714Z,87.40
2018-06-22T05:10:34.659Z,86.40
2018-06-22T05:13:03.965Z,88.00
2018-06-22T05:15:32.869Z,85.40
2018-06-22T05:18:01.834Z,86.00
2018-06-22T05:20:31.050Z,87.80
2018-06-22T05:25:28.406Z,86.40
2018-06-22T05:27:57.398Z,87.10
2018-06-22T05:30:26.469Z,86.90
2018-06-22T05:32:55.652Z,86.40
2018-06-22T05:35:24.770Z,88.40
2018-06-22T05:37:54.113Z,87.00
2018-06-22T05:40:23.131Z,86.40
2018-06-22T05:42:53.095Z,86.20
2018-06-22T05:45:22.001Z,85.40
2018-06-22T05:47:50.933Z,87.50
2018-06-22T05:50:19.906Z,86.10
2018-06-22T05:52:48.866Z,87.80
2018-06-22T05:55:17.929Z,85.60
2018-06-22T05:57:46.822Z,86.40
2018-06-22T06:00:15.738Z,85.60
2018-06-22T06:02:44.898Z,85.50
2018-06-22T06:05:13.862Z,87.80
2018-06-22T06:07:42.797Z,86.70
2018-06-22T06:10:11.727Z,86.70
2018-06-22T06:12:40.887Z,84.30
2018-06-22T06:15:09.826Z,87.00
2018-06-22T06:17:38.768Z,85.50
2018-06-22T06:20:07.704Z,85.00
2018-06-22T06:22:36.643Z,84.00
2018-06-22T06:25:05.586Z,85.00
2018-06-22T06:27:34.539Z,84.50
2018-06-22T06:32:32.370Z,84.70
2018-06-22T06:35:01.352Z,85.50
2018-06-22T06:37:30.298Z,83.40
2018-06-22T06:39:59.235Z,83.70
2018-06-22T06:42:28.170Z,83.40
2018-06-22T06:44:57.363Z,82.30
2018-06-22T06:47:26.614Z,84.10
2018-06-22T06:49:55.825Z,84.70
2018-06-22T06:52:24.838Z,83.50
2018-06-22T06:54:53.751Z,84.00
2018-06-22T06:57:22.850Z,84.40
2018-06-22T06:59:51.779Z,83.00
2018-06-22T07:02:20.951Z,83.20
2018-06-22T07:04:49.860Z,83.10
2018-06-22T07:07:18.821Z,82.80
2018-06-22T07:12:16.396Z,85.00
2018-06-22T07:14:45.383Z,83.30
2018-06-22T07:17:14.328Z,81.10
2018-06-22T07:19:43.455Z,83.90
2018-06-22T07:22:12.551Z,82.80
2018-06-22T07:24:41.463Z,81.00
2018-06-22T07:27:10.399Z,84.50
2018-06-22T07:29:39.520Z,81.20
2018-06-22T07:32:08.567Z,80.00
2018-06-22T07:34:37.610Z,80.70
2018-06-22T07:37:06.543Z,79.70
2018-06-22T07:39:35.530Z,81.60
2018-06-22T07:42:04.525Z,81.30
2018-06-22T07:44:33.461Z,81.30
2018-06-22T07:47:02.464Z,81.60
2018-06-22T07:49:31.565Z,81.40
2018-06-22T07:54:29.045Z,78.60
2018-06-22T07:56:57.949Z,77.80
2018-06-22T07:59:26.982Z,78.70
2018-06-22T08:01:55.906Z,78.20
2018-06-22T08:04:25.007Z,80.00
2018-06-22T08:06:53.991Z,78.50
2018-06-22T08:09:23.049Z,80.30
2018-06-22T08:11:52.018Z,79.60
2018-06-22T08:14:21.204Z,81.90
2018-06-22T08:19:18.727Z,78.10
2018-06-22T08:21:47.675Z,77.80
2018-06-22T08:24:16.725Z,80.80
2018-06-22T08:26:45.705Z,80.90
2018-06-22T08:29:14.676Z,80.00
2018-06-22T08:31:43.610Z,80.80
2018-06-22T08:34:12.699Z,77.80
2018-06-22T08:36:41.653Z,77.80
2018-06-22T08:39:10.579Z,78.40
2018-06-22T08:41:39.566Z,77.40
2018-06-22T08:44:08.501Z,79.90
2018-06-22T08:46:37.451Z,75.80
2018-06-22T08:49:06.532Z,76.30
2018-06-22T08:51:35.438Z,78.40
2018-06-22T08:54:04.704Z,78.40
2018-06-22T09:01:30.515Z,75.10
2018-06-22T09:03:59.450Z,75.30
2018-06-22T09:06:28.471Z,76.40
2018-06-22T09:08:57.398Z,74.80
2018-06-22T09:11:26.363Z,73.40
2018-06-22T09:13:55.337Z,76.20
2018-06-22T09:16:31.119Z,78.00
2018-06-22T09:19:00.076Z,79.10
2018-06-22T09:21:29.007Z,77.00
2018-06-22T09:23:58.145Z,79.50
2018-06-22T09:26:27.170Z,77.60
2018-06-22T09:31:24.763Z,77.40
2018-06-22T09:33:53.648Z,79.00
2018-06-22T09:36:22.578Z,77.90
2018-06-22T09:38:51.620Z,77.90
2018-06-22T09:41:20.582Z,78.60
2018-06-22T09:43:49.525Z,80.70
2018-06-22T09:46:18.482Z,77.90
2018-06-22T09:51:16.148Z,79.70
2018-06-22T09:53:45.070Z,78.10
2018-06-22T09:56:14.018Z,80.50
2018-06-22T09:58:42.964Z,79.50
2018-06-22T10:01:12.022Z,80.80
2018-06-22T10:03:40.967Z,81.90
2018-06-22T10:06:10.086Z,80.50
2018-06-22T10:08:39.162Z,79.50
2018-06-22T10:11:09.507Z,76.70
2018-06-22T10:13:38.490Z,79.00
2018-06-22T10:16:07.447Z,78.90
2018-06-22T10:18:36.381Z,78.00
2018-06-22T10:21:05.623Z,77.60
2018-06-22T10:23:34.551Z,77.60
2018-06-22T10:26:03.717Z,80.70
2018-06-22T10:28:33.692Z,81.00
2018-06-22T10:31:02.597Z,80.60
2018-06-22T10:33:31.496Z,81.30
2018-06-22T10:36:00.461Z,82.00
2018-06-22T10:38:29.531Z,80.60
2018-06-22T10:43:31.979Z,78.90
2018-06-22T10:46:01.049Z,78.20
2018-06-22T10:48:30.106Z,77.20
2018-06-22T10:50:59.162Z,78.50
2018-06-22T10:53:28.122Z,76.30
2018-06-22T10:55:57.157Z,75.10
2018-06-22T10:58:26.625Z,78.70
2018-06-22T11:03:25.993Z,83.40
2018-06-22T11:05:55.094Z,84.30
2018-06-22T11:08:24.081Z,84.30
2018-06-22T11:10:53.170Z,83.70
2018-06-22T11:13:22.359Z,83.90
2018-06-22T11:15:51.398Z,80.70
2018-06-22T11:20:49.417Z,80.30
2018-06-22T11:25:46.984Z,78.20
2018-06-22T11:28:15.989Z,75.20
2018-06-22T11:30:44.959Z,75.70
2018-06-22T11:33:13.957Z,75.80
2018-06-22T11:35:43.208Z,77.80
2018-06-22T11:38:12.169Z,77.00
2018-06-22T11:40:41.158Z,77.50
2018-06-22T11:43:10.188Z,78.60
2018-06-22T11:45:39.247Z,77.80
2018-06-22T11:48:08.274Z,77.80
2018-06-22T11:50:37.389Z,78.40
2018-06-22T11:53:06.524Z,78.70
2018-06-22T11:55:35.530Z,78.90
2018-06-22T11:58:04.767Z,78.60
2018-06-22T12:00:33.690Z,77.60
2018-06-22T12:03:02.614Z,76.30
2018-06-22T12:05:31.597Z,76.70
2018-06-22T12:08:00.559Z,79.70
2018-06-22T12:10:30.002Z,84.70
2018-06-22T12:12:59.067Z,86.90
2018-06-22T12:15:28.062Z,88.60
2018-06-22T12:17:57.059Z,90.30
2018-06-22T12:20:26.125Z,91.70
2018-06-22T12:22:55.074Z,92.00
2018-06-22T12:25:24.275Z,91.90
2018-06-22T12:27:54.188Z,91.90
2018-06-22T12:30:23.122Z,91.70
2018-06-22T12:32:52.418Z,91.00
2018-06-22T12:37:49.986Z,90.10
2018-06-22T12:40:18.977Z,91.10
2018-06-22T12:42:48.907Z,88.70
2018-06-22T12:45:18.011Z,89.00
2018-06-22T12:47:47.118Z,89.40
2018-06-22T12:50:16.134Z,87.40
2018-06-22T12:52:45.129Z,85.90
2018-06-22T12:55:14.082Z,85.40
2018-06-22T12:57:43.276Z,81.90
2018-06-22T13:00:12.099Z,81.50
2018-06-22T13:02:41.169Z,83.10
2018-06-22T13:05:10.185Z,84.70
2018-06-22T13:07:39.336Z,83.50
2018-06-22T13:12:36.852Z,84.20
2018-06-22T13:15:05.830Z,84.30
2018-06-22T13:17:34.885Z,80.70
2018-06-22T13:20:04.047Z,82.80
2018-06-22T13:22:33.077Z,75.30
2018-06-22T13:25:02.083Z,76.30
2018-06-22T13:27:30.997Z,79.30
2018-06-22T13:29:59.945Z,79.90
2018-06-22T13:32:29.223Z,78.20
2018-06-22T13:34:58.159Z,78.90
2018-06-22T13:37:27.127Z,80.30
2018-06-22T13:39:56.291Z,78.40
2018-06-22T13:42:25.670Z,80.40
2018-06-22T13:44:54.582Z,80.60
2018-06-22T13:47:23.546Z,81.50
2018-06-22T13:49:52.419Z,81.80
2018-06-22T13:52:21.405Z,82.80
2018-06-22T13:54:50.502Z,83.60
2018-06-22T13:57:19.536Z,83.60
2018-06-22T13:59:48.590Z,84.30
2018-06-22T14:02:17.746Z,84.00
2018-06-22T14:04:46.813Z,82.40
2018-06-22T14:07:16.109Z,82.60
2018-06-22T14:09:45.434Z,81.10
2018-06-22T14:12:14.446Z,80.90
2018-06-22T14:17:11.914Z,82.40
2018-06-22T14:19:40.917Z,81.50
2018-06-22T14:24:38.330Z,80.50
2018-06-22T14:27:07.294Z,79.30
2018-06-22T14:29:36.218Z,78.30
2018-06-22T14:32:05.400Z,78.50
2018-06-22T14:34:34.330Z,77.80
2018-06-22T14:39:32.140Z,76.90
2018-06-22T14:42:01.137Z,74.80
2018-06-22T14:44:30.754Z,74.20
2018-06-22T14:46:59.734Z,75.40
2018-06-22T14:49:28.755Z,75.10
2018-06-22T14:51:57.833Z,74.70
2018-06-22T14:54:26.862Z,75.10
2018-06-22T14:59:24.326Z,75.60
2018-06-22T15:01:53.571Z,77.20
2018-06-22T15:06:51.136Z,76.10
2018-06-22T15:09:20.214Z,77.20
2018-06-22T15:11:49.162Z,76.10
2018-06-22T15:14:18.158Z,74.20
2018-06-22T15:16:47.407Z,77.20
2018-06-22T15:19:16.403Z,77.00
2018-06-22T15:21:45.290Z,74.40
2018-06-22T15:24:14.333Z,75.70
2018-06-22T15:26:43.406Z,76.70
2018-06-22T15:29:12.512Z,76.00
2018-06-22T15:31:41.427Z,76.00
2018-06-22T15:34:10.381Z,77.20
2018-06-22T15:36:39.317Z,75.70
2018-06-22T15:39:08.971Z,75.90
2018-06-22T15:41:37.932Z,75.50
2018-06-22T15:44:07.066Z,76.90
2018-06-22T15:46:36.096Z,76.50
2018-06-22T15:49:05.051Z,76.90
2018-06-22T15:51:34.659Z,77.80
2018-06-22T15:54:03.877Z,74.40
2018-06-22T15:56:32.789Z,74.10
2018-06-22T15:59:02.544Z,76.60
2018-06-22T16:01:31.691Z,78.50
2018-06-22T16:04:00.656Z,72.90
2018-06-22T16:06:29.709Z,73.40
2018-06-22T16:08:58.755Z,73.50
2018-06-22T16:11:27.768Z,73.40
2018-06-22T16:13:56.787Z,76.60
2018-06-22T16:16:25.802Z,77.00
2018-06-22T16:18:54.806Z,77.50
2018-06-22T16:21:23.810Z,78.70
2018-06-22T16:23:52.761Z,81.10
2018-06-22T16:26:21.738Z,77.90
2018-06-22T16:31:20.130Z,76.10
2018-06-22T16:33:49.155Z,76.20
2018-06-22T16:36:18.100Z,74.80
2018-06-22T16:38:47.023Z,76.00
2018-06-22T16:41:16.018Z,77.30
2018-06-22T16:46:31.707Z,78.00
2018-06-22T16:49:02.451Z,77.80
2018-06-22T16:51:36.375Z,79.50
2018-06-22T16:54:17.038Z,77.80
2018-06-22T16:56:52.709Z,77.60
2018-06-22T16:59:30.061Z,77.30
2018-06-22T17:02:09.017Z,77.30
2018-06-22T17:04:45.589Z,77.10
2018-06-22T17:07:20.433Z,77.00
2018-06-22T17:09:50.505Z,77.90
2018-06-22T17:12:19.382Z,79.60
2018-06-22T17:14:48.645Z,79.50
2018-06-22T17:17:17.580Z,80.90
2018-06-22T17:19:46.833Z,78.00
2018-06-22T17:24:46.138Z,79.80
2018-06-22T17:27:15.211Z,76.50
2018-06-22T17:29:44.268Z,79.30
2018-06-22T17:32:13.287Z,74.90
2018-06-22T17:34:42.609Z,76.10
2018-06-22T17:37:11.596Z,75.20
2018-06-22T17:39:40.490Z,77.20
2018-06-22T17:42:09.520Z,77.30
2018-06-22T17:44:38.446Z,80.00
2018-06-22T17:47:07.659Z,78.20
2018-06-22T17:49:36.823Z,81.00
2018-06-22T17:52:05.898Z,79.00
2018-06-22T17:57:03.889Z,81.10
2018-06-22T17:59:32.862Z,81.00
2018-06-22T18:02:01.908Z,79.40
2018-06-22T18:04:31.891Z,79.60
2018-06-22T18:07:00.878Z,79.80
2018-06-22T18:11:58.577Z,78.20
2018-06-22T18:14:27.574Z,77.60
2018-06-22T18:16:56.599Z,79.00
2018-06-22T18:19:25.837Z,78.20
2018-06-22T18:21:54.997Z,79.30
2018-06-22T18:24:23.992Z,80.90
2018-06-22T18:26:53.611Z,80.20
2018-06-22T18:29:22.623Z,79.30
2018-06-22T18:31:51.612Z,80.40
2018-06-22T18:34:20.546Z,77.80
2018-06-22T18:36:49.618Z,77.50
2018-06-22T18:39:18.683Z,76.40
2018-06-22T18:41:47.869Z,79.40
2018-06-22T18:46:45.673Z,79.70
2018-06-22T18:49:14.722Z,78.10
2018-06-22T18:51:43.713Z,78.70
2018-06-22T18:54:12.735Z,82.20
2018-06-22T19:01:38.627Z,80.40
2018-06-22T19:04:08.284Z,82.20
2018-06-22T19:06:37.413Z,81.40
2018-06-22T19:09:07.266Z,79.80
2018-06-22T19:11:36.304Z,82.00
2018-06-22T19:14:05.524Z,83.00
2018-06-22T19:16:34.542Z,81.30
2018-06-22T19:19:04.019Z,82.60
2018-06-22T19:21:33.113Z,82.00
2018-06-22T19:26:30.785Z,80.20
2018-06-22T19:28:59.771Z,79.20
2018-06-22T19:31:28.696Z,80.60
2018-06-22T19:33:57.771Z,81.80
2018-06-22T19:36:26.717Z,82.50
2018-06-22T19:41:24.114Z,82.90
2018-06-22T19:43:53.603Z,85.60
2018-06-22T19:46:22.663Z,83.90
2018-06-22T19:48:51.796Z,81.80
2018-06-22T19:51:21.122Z,83.40
2018-06-22T19:53:50.299Z,81.80
2018-06-22T19:56:19.341Z,82.10
2018-06-22T19:58:48.526Z,82.40
2018-06-22T20:01:17.555Z,82.50
2018-06-22T20:03:46.553Z,81.50
2018-06-22T20:06:15.570Z,81.10
2018-06-22T20:08:44.515Z,82.60
2018-06-22T20:11:13.652Z,83.90
2018-06-22T20:13:42.716Z,82.40
2018-06-22T20:16:11.780Z,81.90
2018-06-22T20:18:40.952Z,81.40
2018-06-22T20:21:09.972Z,85.10
2018-06-22T20:23:38.951Z,80.90
2018-06-22T20:26:08.159Z,82.20
2018-06-22T20:28:37.150Z,84.40
2018-06-22T20:31:06.226Z,81.90
2018-06-22T20:33:41.941Z,82.50
2018-06-22T20:36:11.049Z,82.20
2018-06-22T20:41:08.933Z,84.20
2018-06-22T20:43:37.950Z,82.80
2018-06-22T20:46:07.190Z,83.50
2018-06-22T20:48:36.123Z,84.50
2018-06-22T20:51:05.231Z,85.80
2018-06-22T20:53:34.212Z,83.50
2018-06-22T20:56:03.265Z,85.00
2018-06-22T20:58:32.391Z,85.20
2018-06-22T21:01:01.496Z,87.60
2018-06-22T21:03:30.481Z,84.70
2018-06-22T21:05:59.586Z,84.00
2018-06-22T21:08:28.781Z,84.20
2018-06-22T21:10:57.767Z,84.20
2018-06-22T21:13:26.719Z,86.30
2018-06-22T21:15:55.660Z,85.20
2018-06-22T21:18:25.028Z,85.50
2018-06-22T21:20:54.046Z,83.00
2018-06-22T21:23:23.082Z,82.90
2018-06-22T21:25:52.038Z,84.30
2018-06-22T21:28:21.108Z,85.60
2018-06-22T21:30:50.161Z,85.30
2018-06-22T21:33:19.109Z,81.90
2018-06-22T21:35:48.082Z,84.40
2018-06-22T21:38:17.051Z,85.60
2018-06-22T21:40:46.114Z,86.00
2018-06-22T21:43:15.340Z,84.60
2018-06-22T21:48:13.011Z,85.10
2018-06-22T21:50:41.994Z,84.00
2018-06-22T21:53:10.930Z,85.50
2018-06-22T21:55:40.206Z,82.90
2018-06-22T21:58:09.244Z,83.50
2018-06-22T22:00:38.305Z,83.50
2018-06-22T22:03:07.280Z,84.20
2018-06-22T22:05:36.387Z,83.10
2018-06-22T22:08:05.603Z,82.40
2018-06-22T22:10:34.693Z,83.50
2018-06-22T22:13:03.661Z,83.20
2018-06-22T22:15:32.751Z,84.50
2018-06-22T22:18:01.776Z,85.20
2018-06-22T22:20:30.714Z,85.20
2018-06-22T22:22:59.717Z,82.90
2018-06-22T22:25:28.662Z,81.80
2018-06-22T22:27:57.625Z,83.30
2018-06-22T22:30:26.810Z,84.20
2018-06-22T22:32:55.785Z,83.20
2018-06-22T22:35:24.720Z,83.40
2018-06-22T22:37:53.753Z,84.30
2018-06-22T22:40:23.010Z,82.10
2018-06-22T22:42:52.073Z,84.00
2018-06-22T22:45:21.034Z,82.30
2018-06-22T22:47:50.266Z,84.60
2018-06-22T22:50:19.459Z,83.90
2018-06-22T22:52:48.402Z,83.70
2018-06-22T22:55:17.432Z,83.90
2018-06-22T23:00:14.921Z,84.60
2018-06-22T23:02:43.965Z,85.00
2018-06-22T23:05:12.886Z,84.70
2018-06-22T23:07:41.824Z,84.60
2018-06-22T23:10:10.810Z,83.70
2018-06-22T23:12:39.791Z,84.30
2018-06-22T23:15:08.791Z,84.30
2018-06-22T23:17:37.801Z,84.60
2018-06-22T23:20:07.015Z,85.70
2018-06-22T23:22:47.101Z,84.60
2018-06-22T23:25:16.076Z,83.40
2018-06-22T23:27:45.054Z,84.90
2018-06-22T23:30:14.058Z,85.10
2018-06-22T23:35:11.598Z,85.50
2018-06-22T23:37:40.594Z,82.30
2018-06-22T23:40:09.546Z,84.70
2018-06-22T23:45:07.198Z,83.70
2018-06-22T23:47:36.106Z,83.20
2018-06-22T23:52:34.377Z,85.50
2018-06-22T23:57:31.924Z,84.80
